createdAt,value
2018-05-25T00:00:59.812Z,19.74
2018-05-25T00:02:00.073Z,19.71
2018-05-25T00:02:59.967Z,19.74
2018-05-25T00:04:00.030Z,19.75
2018-05-25T00:05:00.019Z,19.75
2018-05-25T00:06:00.265Z,19.73
2018-05-25T00:06:59.774Z,19.74
2018-05-25T00:08:00.050Z,19.74
2018-05-25T00:08:59.807Z,19.73
2018-05-25T00:09:59.799Z,19.73
2018-05-25T00:11:00.074Z,19.73
2018-05-25T00:11:59.986Z,19.73
2018-05-25T00:12:59.878Z,19.71
2018-05-25T00:13:59.919Z,19.73
2018-05-25T00:15:00.065Z,19.77
2018-05-25T00:15:59.701Z,19.74
2018-05-25T00:16:59.971Z,19.74
2018-05-25T00:17:59.949Z,19.74
2018-05-25T00:18:59.852Z,19.73
2018-05-25T00:19:59.986Z,19.74
2018-05-25T00:20:59.938Z,19.75
2018-05-25T00:21:59.919Z,19.73
2018-05-25T00:22:59.938Z,19.73
2018-05-25T00:23:59.913Z,19.73
2018-05-25T00:24:59.788Z,19.74
2018-05-25T00:25:59.959Z,19.73
2018-05-25T00:26:59.882Z,19.75
2018-05-25T00:27:59.841Z,19.71
2018-05-25T00:28:59.847Z,19.71
2018-05-25T00:29:59.855Z,19.73
2018-05-25T00:30:59.895Z,19.73
2018-05-25T00:32:00.013Z,19.71
2018-05-25T00:33:00.078Z,19.73
2018-05-25T00:33:59.823Z,19.75
2018-05-25T00:34:59.953Z,19.75
2018-05-25T00:35:59.932Z,19.74
2018-05-25T00:36:59.872Z,19.74
2018-05-25T00:38:00.014Z,19.73
2018-05-25T00:38:59.873Z,19.74
2018-05-25T00:39:59.915Z,19.71
2018-05-25T00:40:59.966Z,19.71
2018-05-25T00:42:00.064Z,19.73
2018-05-25T00:42:59.801Z,19.71
2018-05-25T00:43:59.963Z,19.73
2018-05-25T00:44:59.900Z,19.7
2018-05-25T00:45:59.827Z,19.71
2018-05-25T00:47:00.046Z,19.71
2018-05-25T00:48:00.014Z,19.71
2018-05-25T00:48:59.810Z,19.73
2018-05-25T00:49:59.902Z,19.73
2018-05-25T00:50:59.990Z,19.73
2018-05-25T00:51:59.819Z,19.73
2018-05-25T00:52:59.962Z,19.71
2018-05-25T00:53:59.901Z,19.7
2018-05-25T00:54:59.971Z,19.74
2018-05-25T00:56:00.210Z,19.71
2018-05-25T00:57:00.063Z,19.71
2018-05-25T00:57:59.897Z,19.71
2018-05-25T00:58:59.808Z,19.7
2018-05-25T00:59:59.876Z,19.73
2018-05-25T01:01:00.009Z,19.7
2018-05-25T01:01:59.899Z,19.68
2018-05-25T01:02:59.806Z,19.71
2018-05-25T01:03:59.951Z,19.7
2018-05-25T01:04:59.888Z,19.68
2018-05-25T01:05:59.947Z,19.7
2018-05-25T01:06:59.896Z,19.67
2018-05-25T01:07:59.832Z,19.7
2018-05-25T01:08:59.938Z,19.68
2018-05-25T01:09:59.976Z,19.7
2018-05-25T01:11:00.028Z,19.71
2018-05-25T01:11:59.971Z,19.67
2018-05-25T01:12:59.939Z,19.7
2018-05-25T01:13:59.862Z,19.68
2018-05-25T01:15:00.064Z,19.68
2018-05-25T01:16:00.075Z,19.7
2018-05-25T01:16:59.923Z,19.7
2018-05-25T01:17:59.932Z,19.7
2018-05-25T01:18:59.842Z,19.7
2018-05-25T01:19:59.897Z,19.71
2018-05-25T01:20:59.793Z,19.71
2018-05-25T01:21:59.869Z,19.68
2018-05-25T01:22:59.869Z,19.68
2018-05-25T01:23:59.862Z,19.7
2018-05-25T01:25:00.066Z,19.68
2018-05-25T01:25:59.865Z,19.7
2018-05-25T01:26:59.992Z,19.71
2018-05-25T01:27:59.990Z,19.68
2018-05-25T01:28:59.991Z,19.67
2018-05-25T01:29:59.918Z,19.7
2018-05-25T01:30:59.763Z,19.7
2018-05-25T01:31:59.984Z,19.7
2018-05-25T01:32:59.860Z,19.7
2018-05-25T01:33:59.868Z,19.7
2018-05-25T01:34:59.913Z,19.7
2018-05-25T01:35:59.892Z,19.67
2018-05-25T01:37:00.085Z,19.68
2018-05-25T01:38:00.024Z,19.68
2018-05-25T01:38:59.991Z,19.68
2018-05-25T01:39:59.831Z,19.68
2018-05-25T01:41:00.066Z,19.68
2018-05-25T01:41:59.800Z,19.7
2018-05-25T01:42:59.973Z,19.65
2018-05-25T01:43:59.946Z,19.68
2018-05-25T01:44:59.996Z,19.71
2018-05-25T01:45:59.933Z,19.68
2018-05-25T01:47:00.130Z,19.68
2018-05-25T01:47:59.849Z,19.67
2018-05-25T01:49:00.006Z,19.67
2018-05-25T01:49:59.902Z,19.7
2018-05-25T01:50:59.875Z,19.7
2018-05-25T01:51:59.951Z,19.68
2018-05-25T01:52:59.708Z,19.7
2018-05-25T01:53:59.908Z,19.67
2018-05-25T01:54:59.980Z,19.68
2018-05-25T01:55:59.944Z,19.68
2018-05-25T01:56:59.950Z,19.7
2018-05-25T01:57:59.996Z,19.7
2018-05-25T01:59:00.052Z,19.67
2018-05-25T01:59:59.899Z,19.65
2018-05-25T02:00:59.852Z,19.68
2018-05-25T02:01:59.803Z,19.68
2018-05-25T02:02:59.779Z,19.67
2018-05-25T02:03:59.934Z,19.68
2018-05-25T02:05:00.067Z,19.65
2018-05-25T02:05:59.947Z,19.65
2018-05-25T02:07:00.011Z,19.67
2018-05-25T02:07:59.786Z,19.68
2018-05-25T02:08:59.961Z,19.68
2018-05-25T02:10:00.059Z,19.68
2018-05-25T02:10:59.864Z,19.68
2018-05-25T02:11:59.904Z,19.68
2018-05-25T02:12:59.854Z,19.67
2018-05-25T02:14:00.081Z,19.65
2018-05-25T02:14:59.928Z,19.65
2018-05-25T02:15:59.925Z,19.64
2018-05-25T02:17:00.010Z,19.67
2018-05-25T02:17:59.823Z,19.64
2018-05-25T02:19:00.001Z,19.64
2018-05-25T02:19:59.831Z,19.67
2018-05-25T02:21:00.380Z,19.67
2018-05-25T02:21:59.917Z,19.67
2018-05-25T02:22:59.828Z,19.67
2018-05-25T02:23:59.857Z,19.64
2018-05-25T02:24:59.858Z,19.67
2018-05-25T02:25:59.882Z,19.64
2018-05-25T02:26:59.858Z,19.64
2018-05-25T02:27:59.834Z,19.67
2018-05-25T02:28:59.793Z,19.64
2018-05-25T02:29:59.766Z,19.64
2018-05-25T02:30:59.777Z,19.64
2018-05-25T02:31:59.989Z,19.63
2018-05-25T02:32:59.979Z,19.64
2018-05-25T02:33:59.958Z,19.65
2018-05-25T02:34:59.990Z,19.63
2018-05-25T02:36:00.019Z,19.63
2018-05-25T02:36:59.875Z,19.64
2018-05-25T02:38:00.016Z,19.65
2018-05-25T02:38:59.788Z,19.67
2018-05-25T02:39:59.757Z,19.63
2018-05-25T02:40:59.925Z,19.64
2018-05-25T02:41:59.899Z,19.64
2018-05-25T02:42:59.817Z,19.63
2018-05-25T02:43:59.931Z,19.63
2018-05-25T02:45:00.004Z,19.65
2018-05-25T02:46:00.021Z,19.64
2018-05-25T02:46:59.891Z,19.6
2018-05-25T02:47:59.979Z,19.63
2018-05-25T02:48:59.794Z,19.64
2018-05-25T02:49:59.955Z,19.61
2018-05-25T02:51:21.752Z,19.64
2018-05-25T02:51:59.977Z,19.63
2018-05-25T02:52:59.918Z,19.63
2018-05-25T02:53:59.778Z,19.6
2018-05-25T02:54:59.887Z,19.57
2018-05-25T02:55:59.712Z,19.64
2018-05-25T02:56:59.882Z,19.63
2018-05-25T02:57:59.781Z,19.61
2018-05-25T02:58:59.889Z,19.63
2018-05-25T03:00:00.045Z,19.61
2018-05-25T03:01:00.180Z,19.63
2018-05-25T03:01:59.983Z,19.6
2018-05-25T03:02:59.792Z,19.61
2018-05-25T03:03:59.852Z,19.6
2018-05-25T03:04:59.762Z,19.6
2018-05-25T03:05:59.898Z,19.6
2018-05-25T03:06:59.826Z,19.61
2018-05-25T03:07:59.779Z,19.63
2018-05-25T03:08:59.787Z,19.58
2018-05-25T03:09:59.886Z,19.58
2018-05-25T03:11:00.175Z,19.58
2018-05-25T03:11:59.867Z,19.63
2018-05-25T03:12:59.789Z,19.6
2018-05-25T03:13:59.995Z,19.58
2018-05-25T03:14:59.838Z,19.58
2018-05-25T03:15:59.958Z,19.6
2018-05-25T03:17:00.030Z,19.64
2018-05-25T03:18:00.082Z,19.64
2018-05-25T03:18:59.860Z,19.63
2018-05-25T03:19:59.791Z,19.6
2018-05-25T03:20:59.833Z,19.63
2018-05-25T03:21:59.929Z,19.6
2018-05-25T03:22:59.940Z,19.58
2018-05-25T03:23:59.988Z,19.6
2018-05-25T03:24:59.819Z,19.6
2018-05-25T03:25:59.797Z,19.57
2018-05-25T03:26:59.928Z,19.61
2018-05-25T03:27:59.970Z,19.6
2018-05-25T03:28:59.884Z,19.58
2018-05-25T03:29:59.830Z,19.6
2018-05-25T03:30:59.866Z,19.6
2018-05-25T03:31:59.969Z,19.6
2018-05-25T03:32:59.872Z,19.6
2018-05-25T03:33:59.904Z,19.6
2018-05-25T03:34:59.801Z,19.61
2018-05-25T03:35:59.795Z,19.57
2018-05-25T03:36:59.758Z,19.58
2018-05-25T03:37:59.966Z,19.6
2018-05-25T03:38:59.840Z,19.6
2018-05-25T03:39:59.859Z,19.6
2018-05-25T03:40:59.800Z,19.58
2018-05-25T03:41:59.909Z,19.6
2018-05-25T03:42:59.849Z,19.6
2018-05-25T03:44:00.106Z,19.6
2018-05-25T03:44:59.788Z,19.61
2018-05-25T03:45:59.970Z,19.6
2018-05-25T03:46:59.874Z,19.6
2018-05-25T03:47:59.828Z,19.54
2018-05-25T03:48:59.831Z,19.58
2018-05-25T03:49:59.840Z,19.57
2018-05-25T03:50:59.913Z,19.6
2018-05-25T03:51:59.753Z,19.58
2018-05-25T03:52:59.681Z,19.58
2018-05-25T03:53:59.749Z,19.58
2018-05-25T03:54:59.877Z,19.61
2018-05-25T03:55:59.916Z,19.58
2018-05-25T03:56:59.864Z,19.58
2018-05-25T03:57:59.740Z,19.6
2018-05-25T03:58:59.922Z,19.58
2018-05-25T03:59:59.936Z,19.57
2018-05-25T04:00:59.880Z,19.58
2018-05-25T04:01:59.943Z,19.57
2018-05-25T04:02:59.755Z,19.57
2018-05-25T04:03:59.757Z,19.56
2018-05-25T04:04:59.897Z,19.57
2018-05-25T04:05:59.788Z,19.6
2018-05-25T04:06:59.950Z,19.57
2018-05-25T04:07:59.723Z,19.57
2018-05-25T04:08:59.810Z,19.6
2018-05-25T04:10:00.158Z,19.57
2018-05-25T04:10:59.928Z,19.57
2018-05-25T04:11:59.716Z,19.56
2018-05-25T04:12:59.747Z,19.58
2018-05-25T04:13:59.985Z,19.57
2018-05-25T04:14:59.752Z,19.57
2018-05-25T04:15:59.983Z,19.57
2018-05-25T04:16:59.889Z,19.57
2018-05-25T04:17:59.953Z,19.6
2018-05-25T04:18:59.907Z,19.6
2018-05-25T04:19:59.912Z,19.58
2018-05-25T04:20:59.844Z,19.57
2018-05-25T04:21:59.725Z,19.58
2018-05-25T04:22:59.949Z,19.57
2018-05-25T04:23:59.815Z,19.6
2018-05-25T04:24:59.797Z,19.58
2018-05-25T04:25:59.773Z,19.58
2018-05-25T04:26:59.936Z,19.58
2018-05-25T04:27:59.988Z,19.54
2018-05-25T04:28:59.928Z,19.57
2018-05-25T04:29:59.898Z,19.57
2018-05-25T04:30:59.869Z,19.6
2018-05-25T04:31:59.917Z,19.56
2018-05-25T04:32:59.819Z,19.57
2018-05-25T04:33:59.880Z,19.57
2018-05-25T04:34:59.718Z,19.54
2018-05-25T04:35:59.944Z,19.6
2018-05-25T04:36:59.973Z,19.57
2018-05-25T04:37:59.937Z,19.54
2018-05-25T04:38:59.832Z,19.56
2018-05-25T04:39:59.772Z,19.57
2018-05-25T04:40:59.829Z,19.56
2018-05-25T04:41:59.783Z,19.57
2018-05-25T04:43:00.020Z,19.58
2018-05-25T04:43:59.900Z,19.58
2018-05-25T04:44:59.878Z,19.58
2018-05-25T04:45:59.922Z,19.57
2018-05-25T04:46:59.836Z,19.57
2018-05-25T04:48:00.117Z,19.57
2018-05-25T04:48:59.887Z,19.58
2018-05-25T04:49:59.893Z,19.58
2018-05-25T04:50:59.916Z,19.57
2018-05-25T04:51:59.929Z,19.58
2018-05-25T04:52:59.866Z,19.57
2018-05-25T04:53:59.843Z,19.57
2018-05-25T04:54:59.996Z,19.6
2018-05-25T04:56:00.069Z,19.6
2018-05-25T04:56:59.740Z,19.56
2018-05-25T04:57:59.707Z,19.56
2018-05-25T04:58:59.858Z,19.56
2018-05-25T04:59:59.778Z,19.57
2018-05-25T05:00:59.893Z,19.57
2018-05-25T05:01:59.804Z,19.58
2018-05-25T05:02:59.717Z,19.57
2018-05-25T05:03:59.857Z,19.56
2018-05-25T05:05:00.354Z,19.56
2018-05-25T05:05:59.775Z,19.54
2018-05-25T05:06:59.697Z,19.54
2018-05-25T05:07:59.791Z,19.57
2018-05-25T05:08:59.847Z,19.56
2018-05-25T05:09:59.903Z,19.54
2018-05-25T05:10:59.971Z,19.56
2018-05-25T05:11:59.917Z,19.57
2018-05-25T05:12:59.802Z,19.57
2018-05-25T05:13:59.725Z,19.57
2018-05-25T05:14:59.873Z,19.58
2018-05-25T05:15:59.738Z,19.57
2018-05-25T05:16:59.897Z,19.57
2018-05-25T05:17:59.877Z,19.54
2018-05-25T05:19:00.025Z,19.54
2018-05-25T05:19:59.933Z,19.54
2018-05-25T05:20:59.942Z,19.57
2018-05-25T05:21:59.980Z,19.57
2018-05-25T05:23:00.134Z,19.56
2018-05-25T05:23:59.769Z,19.54
2018-05-25T05:24:59.796Z,19.56
2018-05-25T05:25:59.964Z,19.57
2018-05-25T05:27:00.011Z,19.56
2018-05-25T05:27:59.819Z,19.57
2018-05-25T05:28:59.823Z,19.56
2018-05-25T05:29:59.981Z,19.53
2018-05-25T05:30:59.909Z,19.57
2018-05-25T05:31:59.980Z,19.56
2018-05-25T05:32:59.782Z,19.56
2018-05-25T05:33:59.845Z,19.57
2018-05-25T05:34:59.914Z,19.58
2018-05-25T05:35:59.762Z,19.57
2018-05-25T05:36:59.754Z,19.56
2018-05-25T05:37:59.813Z,19.56
2018-05-25T05:38:59.753Z,19.56
2018-05-25T05:39:59.807Z,19.53
2018-05-25T05:40:59.804Z,19.56
2018-05-25T05:41:59.828Z,19.54
2018-05-25T05:42:59.699Z,19.56
2018-05-25T05:43:59.959Z,19.57
2018-05-25T05:44:59.866Z,19.56
2018-05-25T05:45:59.865Z,19.56
2018-05-25T05:46:59.838Z,19.58
2018-05-25T05:47:59.785Z,19.58
2018-05-25T05:48:59.899Z,19.58
2018-05-25T05:49:59.841Z,19.56
2018-05-25T05:51:00.437Z,19.54
2018-05-25T05:51:59.764Z,19.56
2018-05-25T05:52:59.812Z,19.56
2018-05-25T05:53:59.762Z,19.56
2018-05-25T05:54:59.800Z,19.57
2018-05-25T05:55:59.806Z,19.54
2018-05-25T05:56:59.881Z,19.54
2018-05-25T05:57:59.872Z,19.57
2018-05-25T05:58:59.824Z,19.54
2018-05-25T05:59:59.817Z,19.54
2018-05-25T06:00:59.723Z,19.57
2018-05-25T06:01:59.875Z,19.56
2018-05-25T06:02:59.924Z,19.54
2018-05-25T06:03:59.734Z,19.57
2018-05-25T06:04:59.896Z,19.56
2018-05-25T06:05:59.783Z,19.56
2018-05-25T06:06:59.967Z,19.56
2018-05-25T06:07:59.921Z,19.57
2018-05-25T06:08:59.676Z,19.58
2018-05-25T06:09:59.676Z,19.56
2018-05-25T06:10:59.801Z,19.57
2018-05-25T06:11:59.725Z,19.57
2018-05-25T06:12:59.932Z,19.57
2018-05-25T06:13:59.701Z,19.57
2018-05-25T06:15:00.198Z,19.58
2018-05-25T06:15:59.774Z,19.56
2018-05-25T06:16:59.733Z,19.58
2018-05-25T06:17:59.791Z,19.57
2018-05-25T06:18:59.699Z,19.57
2018-05-25T06:19:59.932Z,19.57
2018-05-25T06:20:59.756Z,19.58
2018-05-25T06:21:59.818Z,19.56
2018-05-25T06:22:59.865Z,19.56
2018-05-25T06:23:59.797Z,19.56
2018-05-25T06:24:59.750Z,19.56
2018-05-25T06:25:59.807Z,19.57
2018-05-25T06:26:59.738Z,19.56
2018-05-25T06:27:59.700Z,19.54
2018-05-25T06:28:59.720Z,19.57
2018-05-25T06:29:59.735Z,19.57
2018-05-25T06:30:59.855Z,19.57
2018-05-25T06:31:59.836Z,19.58
2018-05-25T06:32:59.919Z,19.56
2018-05-25T06:33:59.922Z,19.58
2018-05-25T06:35:00.772Z,19.57
2018-05-25T06:35:59.809Z,19.57
2018-05-25T06:36:59.693Z,19.56
2018-05-25T06:37:59.867Z,19.57
2018-05-25T06:38:59.823Z,19.58
2018-05-25T06:39:59.753Z,19.56
2018-05-25T06:40:59.987Z,19.56
2018-05-25T06:41:59.797Z,19.56
2018-05-25T06:42:59.936Z,19.57
2018-05-25T06:43:59.816Z,19.54
2018-05-25T06:44:59.841Z,19.58
2018-05-25T06:45:59.722Z,19.56
2018-05-25T06:46:59.972Z,19.57
2018-05-25T06:47:59.933Z,19.57
2018-05-25T06:48:59.907Z,19.57
2018-05-25T06:49:59.959Z,19.6
2018-05-25T06:50:59.864Z,19.6
2018-05-25T06:51:59.932Z,19.56
2018-05-25T06:52:59.857Z,19.58
2018-05-25T06:53:59.904Z,19.57
2018-05-25T06:54:59.682Z,19.57
2018-05-25T06:55:59.819Z,19.57
2018-05-25T06:56:59.740Z,19.56
2018-05-25T06:58:00.077Z,19.56
2018-05-25T06:58:59.837Z,19.57
2018-05-25T06:59:59.756Z,19.58
2018-05-25T07:00:59.733Z,19.58
2018-05-25T07:01:59.798Z,19.57
2018-05-25T07:02:59.784Z,19.58
2018-05-25T07:04:00.014Z,19.6
2018-05-25T07:04:59.845Z,19.58
2018-05-25T07:05:59.759Z,19.58
2018-05-25T07:06:59.785Z,19.56
2018-05-25T07:07:59.836Z,19.58
2018-05-25T07:08:59.878Z,19.61
2018-05-25T07:09:59.670Z,19.57
2018-05-25T07:10:59.827Z,19.6
2018-05-25T07:11:59.848Z,19.58
2018-05-25T07:12:59.618Z,19.56
2018-05-25T07:13:59.745Z,19.61
2018-05-25T07:14:59.698Z,19.58
2018-05-25T07:15:59.774Z,19.57
2018-05-25T07:17:00.226Z,19.58
2018-05-25T07:17:59.744Z,19.58
2018-05-25T07:18:59.733Z,19.57
2018-05-25T07:19:59.852Z,19.54
2018-05-25T07:20:59.871Z,19.61
2018-05-25T07:21:59.735Z,19.56
2018-05-25T07:22:59.779Z,19.56
2018-05-25T07:23:59.774Z,19.57
2018-05-25T07:24:59.813Z,19.58
2018-05-25T07:25:59.914Z,19.58
2018-05-25T07:26:59.723Z,19.58
2018-05-25T07:27:59.673Z,19.56
2018-05-25T07:28:59.684Z,19.58
2018-05-25T07:29:59.806Z,19.57
2018-05-25T07:31:21.156Z,19.6
2018-05-25T07:31:59.700Z,19.58
2018-05-25T07:32:59.847Z,19.58
2018-05-25T07:33:59.778Z,19.57
2018-05-25T07:34:59.672Z,19.58
2018-05-25T07:35:59.683Z,19.57
2018-05-25T07:36:59.919Z,19.56
2018-05-25T07:37:59.888Z,19.6
2018-05-25T07:38:59.887Z,19.57
2018-05-25T07:39:59.766Z,19.57
2018-05-25T07:40:59.822Z,19.57
2018-05-25T07:41:59.812Z,19.57
2018-05-25T07:42:59.854Z,19.58
2018-05-25T07:43:59.837Z,19.58
2018-05-25T07:45:00.012Z,19.58
2018-05-25T07:45:59.818Z,19.57
2018-05-25T07:46:59.814Z,19.58
2018-05-25T07:47:59.670Z,19.61
2018-05-25T07:48:59.921Z,19.58
2018-05-25T07:49:59.775Z,19.56
2018-05-25T07:50:59.700Z,19.58
2018-05-25T07:51:59.865Z,19.6
2018-05-25T07:52:59.777Z,19.58
2018-05-25T07:53:59.703Z,19.6
2018-05-25T07:54:59.967Z,19.58
2018-05-25T07:55:59.900Z,19.57
2018-05-25T07:56:59.667Z,19.56
2018-05-25T07:57:59.902Z,19.6
2018-05-25T07:58:59.810Z,19.57
2018-05-25T07:59:59.825Z,19.58
2018-05-25T08:00:59.817Z,19.6
2018-05-25T08:01:59.822Z,19.58
2018-05-25T08:02:59.803Z,19.57
2018-05-25T08:03:59.919Z,19.56
2018-05-25T08:04:59.749Z,19.58
2018-05-25T08:05:59.778Z,19.58
2018-05-25T08:06:59.750Z,19.58
2018-05-25T08:07:59.768Z,19.57
2018-05-25T08:08:59.958Z,19.6
2018-05-25T08:09:59.725Z,19.58
2018-05-25T08:10:59.641Z,19.57
2018-05-25T08:12:00.448Z,19.57
2018-05-25T08:12:59.763Z,19.57
2018-05-25T08:14:00.049Z,19.58
2018-05-25T08:14:59.827Z,19.56
2018-05-25T08:15:59.711Z,19.56
2018-05-25T08:16:59.995Z,19.54
2018-05-25T08:17:59.816Z,19.58
2018-05-25T08:18:59.725Z,19.57
2018-05-25T08:19:59.630Z,19.58
2018-05-25T08:20:59.787Z,19.56
2018-05-25T08:22:00.399Z,19.57
2018-05-25T08:22:59.853Z,19.57
2018-05-25T08:23:59.806Z,19.58
2018-05-25T08:24:59.896Z,19.57
2018-05-25T08:25:59.822Z,19.6
2018-05-25T08:26:59.924Z,19.57
2018-05-25T08:27:59.891Z,19.56
2018-05-25T08:28:59.690Z,19.57
2018-05-25T08:29:59.756Z,19.6
2018-05-25T08:30:59.837Z,19.57
2018-05-25T08:31:59.763Z,19.58
2018-05-25T08:32:59.747Z,19.57
2018-05-25T08:33:59.753Z,19.57
2018-05-25T08:34:59.799Z,19.57
2018-05-25T08:35:59.940Z,19.57
2018-05-25T08:36:59.837Z,19.58
2018-05-25T08:37:59.704Z,19.56
2018-05-25T08:38:59.828Z,19.6
2018-05-25T08:39:59.866Z,19.58
2018-05-25T08:40:59.719Z,19.58
2018-05-25T08:41:59.897Z,19.57
2018-05-25T08:42:59.785Z,19.56
2018-05-25T08:43:59.700Z,19.58
2018-05-25T08:44:59.753Z,19.57
2018-05-25T08:46:00.036Z,19.56
2018-05-25T08:46:59.717Z,19.54
2018-05-25T08:47:59.846Z,19.56
2018-05-25T08:48:59.867Z,19.57
2018-05-25T08:49:59.589Z,19.57
2018-05-25T08:50:59.816Z,19.57
2018-05-25T08:51:59.695Z,19.56
2018-05-25T08:52:59.856Z,19.57
2018-05-25T08:53:59.756Z,19.57
2018-05-25T08:54:59.716Z,19.57
2018-05-25T08:55:59.835Z,19.56
2018-05-25T08:56:59.702Z,19.54
2018-05-25T08:57:59.873Z,19.57
2018-05-25T08:58:59.686Z,19.57
2018-05-25T08:59:59.799Z,19.57
2018-05-25T09:00:59.818Z,19.57
2018-05-25T09:01:59.917Z,19.56
2018-05-25T09:02:59.821Z,19.57
2018-05-25T09:03:59.723Z,19.58
2018-05-25T09:04:59.674Z,19.54
2018-05-25T09:05:59.860Z,19.57
2018-05-25T09:06:59.625Z,19.58
2018-05-25T09:07:59.606Z,19.56
2018-05-25T09:09:00.061Z,19.57
2018-05-25T09:09:59.733Z,19.6
2018-05-25T09:10:59.775Z,19.56
2018-05-25T09:11:59.784Z,19.57
2018-05-25T09:12:59.704Z,19.54
2018-05-25T09:13:59.845Z,19.57
2018-05-25T09:14:59.700Z,19.57
2018-05-25T09:15:59.854Z,19.58
2018-05-25T09:16:59.836Z,19.57
2018-05-25T09:17:59.824Z,19.6
2018-05-25T09:18:59.885Z,19.57
2018-05-25T09:19:59.789Z,19.61
2018-05-25T09:20:59.798Z,19.64
2018-05-25T09:21:59.801Z,19.67
2018-05-25T09:22:59.809Z,19.67
2018-05-25T09:23:59.844Z,19.7
2018-05-25T09:24:59.793Z,19.71
2018-05-25T09:25:59.756Z,19.7
2018-05-25T09:26:59.686Z,19.73
2018-05-25T09:27:59.805Z,19.74
2018-05-25T09:28:59.917Z,19.73
2018-05-25T09:29:59.799Z,19.74
2018-05-25T09:30:59.882Z,19.78
2018-05-25T09:31:59.867Z,19.78
2018-05-25T09:32:59.722Z,19.81
2018-05-25T09:33:59.887Z,19.81
2018-05-25T09:34:59.624Z,19.82
2018-05-25T09:35:59.938Z,19.81
2018-05-25T09:36:59.876Z,19.85
2018-05-25T09:37:59.980Z,19.88
2018-05-25T09:38:59.767Z,19.88
2018-05-25T09:39:59.618Z,19.91
2018-05-25T09:40:59.702Z,19.91
2018-05-25T09:41:59.644Z,19.89
2018-05-25T09:42:59.833Z,19.92
2018-05-25T09:43:59.643Z,19.91
2018-05-25T09:44:59.819Z,19.91
2018-05-25T09:45:59.780Z,19.92
2018-05-25T09:46:59.662Z,19.91
2018-05-25T09:47:59.739Z,19.93
2018-05-25T09:48:59.750Z,19.95
2018-05-25T09:49:59.764Z,19.93
2018-05-25T09:50:59.726Z,19.95
2018-05-25T09:51:59.904Z,19.95
2018-05-25T09:52:59.647Z,19.95
2018-05-25T09:53:59.844Z,19.95
2018-05-25T09:54:59.888Z,19.93
2018-05-25T09:55:59.838Z,19.99
2018-05-25T09:56:59.854Z,19.99
2018-05-25T09:57:59.835Z,19.96
2018-05-25T09:58:59.750Z,19.98
2018-05-25T09:59:59.830Z,19.98
2018-05-25T10:00:59.896Z,19.96
2018-05-25T10:01:59.668Z,19.98
2018-05-25T10:02:59.766Z,20.01
2018-05-25T10:03:59.609Z,19.99
2018-05-25T10:05:00.785Z,19.98
2018-05-25T10:05:59.829Z,19.98
2018-05-25T10:06:59.647Z,20.01
2018-05-25T10:07:59.819Z,19.99
2018-05-25T10:08:59.796Z,20.01
2018-05-25T10:09:59.698Z,20.04
2018-05-25T10:10:59.755Z,20.04
2018-05-25T10:11:59.855Z,20.04
2018-05-25T10:12:59.623Z,20.05
2018-05-25T10:13:59.798Z,20.02
2018-05-25T10:14:59.625Z,20.02
2018-05-25T10:15:59.717Z,20.02
2018-05-25T10:16:59.964Z,19.99
2018-05-25T10:18:00.408Z,19.99
2018-05-25T10:18:59.706Z,19.96
2018-05-25T10:19:59.857Z,19.98
2018-05-25T10:20:59.761Z,19.96
2018-05-25T10:21:59.929Z,19.93
2018-05-25T10:22:59.718Z,19.95
2018-05-25T10:23:59.872Z,19.95
2018-05-25T10:24:59.952Z,19.93
2018-05-25T10:25:59.803Z,19.96
2018-05-25T10:26:59.870Z,19.93
2018-05-25T10:27:59.811Z,19.91
2018-05-25T10:28:59.708Z,19.92
2018-05-25T10:29:59.781Z,19.91
2018-05-25T10:30:59.669Z,19.92
2018-05-25T10:31:59.824Z,19.91
2018-05-25T10:32:59.854Z,19.91
2018-05-25T10:33:59.637Z,19.93
2018-05-25T10:35:00.311Z,19.92
2018-05-25T10:35:59.881Z,19.89
2018-05-25T10:36:59.631Z,19.91
2018-05-25T10:37:59.735Z,19.91
2018-05-25T10:38:59.715Z,19.88
2018-05-25T10:39:59.549Z,19.91
2018-05-25T10:41:00.049Z,19.89
2018-05-25T10:41:59.664Z,19.89
2018-05-25T10:42:59.783Z,19.89
2018-05-25T10:43:59.812Z,19.86
2018-05-25T10:44:59.884Z,19.85
2018-05-25T10:45:59.749Z,19.84
2018-05-25T10:46:59.665Z,19.85
2018-05-25T10:47:59.679Z,19.86
2018-05-25T10:48:59.668Z,19.84
2018-05-25T10:49:59.792Z,19.85
2018-05-25T10:50:59.790Z,19.85
2018-05-25T10:51:59.801Z,19.86
2018-05-25T10:52:59.948Z,19.86
2018-05-25T10:53:59.665Z,19.89
2018-05-25T10:54:59.830Z,19.89
2018-05-25T10:56:00.456Z,19.88
2018-05-25T10:56:59.708Z,19.88
2018-05-25T10:58:00.443Z,19.89
2018-05-25T10:58:59.805Z,19.86
2018-05-25T10:59:59.833Z,19.86
2018-05-25T11:00:59.762Z,19.88
2018-05-25T11:01:59.795Z,19.85
2018-05-25T11:02:59.880Z,19.88
2018-05-25T11:03:59.583Z,19.84
2018-05-25T11:04:59.762Z,19.84
2018-05-25T11:05:59.810Z,19.85
2018-05-25T11:06:59.617Z,19.85
2018-05-25T11:07:59.805Z,19.85
2018-05-25T11:08:59.672Z,19.86
2018-05-25T11:10:00.182Z,19.84
2018-05-25T11:10:59.622Z,19.84
2018-05-25T11:11:59.637Z,19.85
2018-05-25T11:12:59.563Z,19.85
2018-05-25T11:13:59.759Z,19.82
2018-05-25T11:14:59.704Z,19.8
2018-05-25T11:15:59.619Z,19.82
2018-05-25T11:16:59.794Z,19.81
2018-05-25T11:17:59.845Z,19.81
2018-05-25T11:18:59.809Z,19.82
2018-05-25T11:19:59.794Z,19.82
2018-05-25T11:21:00.063Z,19.82
2018-05-25T11:22:00.040Z,19.82
2018-05-25T11:22:59.693Z,19.81
2018-05-25T11:23:59.644Z,19.81
2018-05-25T11:24:59.692Z,19.81
2018-05-25T11:25:59.680Z,19.82
2018-05-25T11:27:00.255Z,19.81
2018-05-25T11:27:59.724Z,19.82
2018-05-25T11:28:59.836Z,19.84
2018-05-25T11:29:59.808Z,19.8
2018-05-25T11:30:59.672Z,19.81
2018-05-25T11:31:59.693Z,19.82
2018-05-25T11:32:59.867Z,19.84
2018-05-25T11:33:59.583Z,19.82
2018-05-25T11:34:59.848Z,19.82
2018-05-25T11:35:59.996Z,19.78
2018-05-25T11:36:59.835Z,19.81
2018-05-25T11:37:59.892Z,19.81
2018-05-25T11:38:59.791Z,19.78
2018-05-25T11:39:59.874Z,19.8
2018-05-25T11:40:59.995Z,19.8
2018-05-25T11:41:59.822Z,19.8
2018-05-25T11:42:59.832Z,19.8
2018-05-25T11:43:59.820Z,19.8
2018-05-25T11:44:59.864Z,19.81
2018-05-25T11:45:59.756Z,19.81
2018-05-25T11:46:59.784Z,19.78
2018-05-25T11:48:00.083Z,19.78
2018-05-25T11:48:59.969Z,19.81
2018-05-25T11:49:59.875Z,19.81
2018-05-25T11:50:59.764Z,19.8
2018-05-25T11:51:59.642Z,19.8
2018-05-25T11:52:59.967Z,19.81
2018-05-25T11:53:59.887Z,19.8
2018-05-25T11:54:59.853Z,19.8
2018-05-25T11:55:59.631Z,19.81
2018-05-25T11:56:59.863Z,19.81
2018-05-25T11:57:59.730Z,19.78
2018-05-25T11:58:59.901Z,19.81
2018-05-25T11:59:59.864Z,19.78
2018-05-25T12:00:59.686Z,19.8
2018-05-25T12:01:59.607Z,19.81
2018-05-25T12:02:59.764Z,19.8
2018-05-25T12:03:59.637Z,19.81
2018-05-25T12:04:59.867Z,19.81
2018-05-25T12:05:59.620Z,19.81
2018-05-25T12:06:59.788Z,19.8
2018-05-25T12:07:59.787Z,19.8
2018-05-25T12:08:59.818Z,19.8
2018-05-25T12:09:59.753Z,19.82
2018-05-25T12:10:59.636Z,19.78
2018-05-25T12:11:59.709Z,19.8
2018-05-25T12:12:59.669Z,19.81
2018-05-25T12:14:00.012Z,19.81
2018-05-25T12:14:59.727Z,19.8
2018-05-25T12:15:59.823Z,19.81
2018-05-25T12:16:59.805Z,19.8
2018-05-25T12:17:59.745Z,19.81
2018-05-25T12:18:59.779Z,19.81
2018-05-25T12:19:59.902Z,19.82
2018-05-25T12:20:59.699Z,19.81
2018-05-25T12:21:59.713Z,19.81
2018-05-25T12:22:59.845Z,19.81
2018-05-25T12:23:59.747Z,19.81
2018-05-25T12:24:59.771Z,19.81
2018-05-25T12:25:59.800Z,19.81
2018-05-25T12:26:59.705Z,19.82
2018-05-25T12:27:59.798Z,19.82
2018-05-25T12:28:59.875Z,19.81
2018-05-25T12:29:59.731Z,19.86
2018-05-25T12:30:59.739Z,19.85
2018-05-25T12:31:59.552Z,19.84
2018-05-25T12:32:59.804Z,19.88
2018-05-25T12:33:59.780Z,19.91
2018-05-25T12:34:59.760Z,19.89
2018-05-25T12:35:59.773Z,19.91
2018-05-25T12:36:59.658Z,19.92
2018-05-25T12:37:59.844Z,19.92
2018-05-25T12:38:59.829Z,19.93
2018-05-25T12:39:59.807Z,19.96
2018-05-25T12:40:59.672Z,19.95
2018-05-25T12:41:59.834Z,19.96
2018-05-25T12:42:59.663Z,19.95
2018-05-25T12:43:59.778Z,19.92
2018-05-25T12:44:59.763Z,19.95
2018-05-25T12:45:59.793Z,19.93
2018-05-25T12:46:59.774Z,19.93
2018-05-25T12:47:59.888Z,19.96
2018-05-25T12:48:59.806Z,19.98
2018-05-25T12:49:59.703Z,19.96
2018-05-25T12:50:59.815Z,19.98
2018-05-25T12:51:59.729Z,19.99
2018-05-25T12:52:59.670Z,20.02
2018-05-25T12:53:59.867Z,20.04
2018-05-25T12:54:59.773Z,20.02
2018-05-25T12:55:59.688Z,20.02